createdAt,value
2018-07-27T00:00:18.978Z,40.60
2018-07-27T00:01:18.976Z,40.60
2018-07-27T00:02:19.004Z,41.28
2018-07-27T00:03:18.988Z,40.89
2018-07-27T00:04:19.047Z,41.08
2018-07-27T00:05:18.973Z,41.08
2018-07-27T00:06:18.971Z,41.08
2018-07-27T00:07:18.970Z,41.28
2018-07-27T00:08:18.944Z,40.89
2018-07-27T00:09:18.952Z,40.89
2018-07-27T00:10:18.986Z,40.89
2018-07-27T00:11:18.950Z,41.18
2018-07-27T00:12:18.979Z,41.08
2018-07-27T00:13:18.941Z,41.08
2018-07-27T00:14:18.929Z,40.99
2018-07-27T00:15:18.982Z,41.47
2018-07-27T00:16:18.931Z,41.08
2018-07-27T00:17:18.944Z,40.99
2018-07-27T00:18:18.924Z,40.89
2018-07-27T00:19:18.936Z,40.89
2018-07-27T00:20:19.466Z,41.38
2018-07-27T00:21:18.972Z,40.99
2018-07-27T00:22:18.936Z,40.89
2018-07-27T00:23:18.933Z,40.79
2018-07-27T00:24:18.925Z,40.89
2018-07-27T00:25:18.900Z,40.89
2018-07-27T00:26:19.439Z,40.89
2018-07-27T00:27:18.954Z,41.18
2018-07-27T00:28:18.926Z,40.77
2018-07-27T00:29:20.020Z,41.38
2018-07-27T00:30:19.413Z,41.45
2018-07-27T00:31:18.882Z,41.64
2018-07-27T00:32:19.064Z,41.26
2018-07-27T00:33:19.545Z,41.36
2018-07-27T00:34:18.878Z,41.26
2018-07-27T00:35:18.897Z,40.97
2018-07-27T00:36:18.894Z,41.55
2018-07-27T00:37:19.544Z,41.55
2018-07-27T00:38:18.899Z,41.64
2018-07-27T00:39:18.886Z,41.94
2018-07-27T00:40:18.888Z,41.64
2018-07-27T00:41:18.872Z,41.64
2018-07-27T00:42:18.881Z,42.03
2018-07-27T00:43:18.959Z,41.94
2018-07-27T00:44:18.868Z,41.64
2018-07-27T00:45:18.835Z,42.02
2018-07-27T00:46:18.877Z,41.55
2018-07-27T00:47:18.880Z,41.74
2018-07-27T00:48:18.839Z,42.43
2018-07-27T00:49:18.836Z,42.40
2018-07-27T00:50:18.872Z,42.30
2018-07-27T00:51:18.829Z,42.11
2018-07-27T00:52:18.817Z,42.02
2018-07-27T00:53:18.811Z,42.21
2018-07-27T00:54:18.821Z,42.33
2018-07-27T00:55:18.846Z,41.72
2018-07-27T00:56:18.817Z,42.02
2018-07-27T00:57:18.796Z,42.11
2018-07-27T00:58:18.817Z,42.11
2018-07-27T00:59:18.830Z,42.11
2018-07-27T01:00:18.786Z,42.21
2018-07-27T01:01:18.782Z,42.21
2018-07-27T01:02:18.830Z,42.02
2018-07-27T01:03:18.790Z,42.11
2018-07-27T01:04:18.786Z,42.69
2018-07-27T01:05:18.820Z,42.50
2018-07-27T01:06:18.786Z,42.60
2018-07-27T01:07:18.786Z,42.60
2018-07-27T01:08:18.763Z,42.60
2018-07-27T01:09:18.758Z,42.79
2018-07-27T01:10:18.818Z,42.89
2018-07-27T01:11:18.742Z,42.99
2018-07-27T01:12:18.779Z,42.60
2018-07-27T01:13:18.774Z,42.99
2018-07-27T01:14:18.756Z,42.69
2018-07-27T01:15:18.738Z,42.79
2018-07-27T01:16:18.781Z,42.48
2018-07-27T01:17:18.769Z,42.50
2018-07-27T01:18:18.724Z,42.57
2018-07-27T01:19:18.723Z,43.18
2018-07-27T01:20:18.787Z,42.96
2018-07-27T01:21:18.725Z,42.57
2018-07-27T01:22:18.717Z,43.16
2018-07-27T01:23:18.709Z,42.89
2018-07-27T01:24:18.714Z,42.96
2018-07-27T01:25:18.725Z,42.96
2018-07-27T01:26:18.724Z,42.89
2018-07-27T01:27:18.692Z,42.86
2018-07-27T01:28:18.760Z,43.06
2018-07-27T01:29:18.699Z,43.08
2018-07-27T01:30:18.690Z,42.86
2018-07-27T01:31:18.699Z,42.89
2018-07-27T01:32:18.682Z,42.89
2018-07-27T01:33:18.682Z,43.35
2018-07-27T01:34:18.695Z,43.16
2018-07-27T01:35:18.678Z,42.86
2018-07-27T01:36:18.666Z,42.86
2018-07-27T01:37:18.707Z,42.89
2018-07-27T01:38:18.661Z,42.77
2018-07-27T01:39:18.662Z,43.35
2018-07-27T01:40:18.657Z,43.35
2018-07-27T01:41:18.639Z,43.16
2018-07-27T01:42:18.642Z,43.54
2018-07-27T01:43:18.660Z,43.54
2018-07-27T01:44:18.664Z,43.45
2018-07-27T01:45:18.631Z,43.54
2018-07-27T01:46:18.628Z,43.64
2018-07-27T01:47:18.624Z,43.74
2018-07-27T01:48:18.635Z,43.93
2018-07-27T01:49:18.653Z,43.64
2018-07-27T01:50:18.650Z,43.74
2018-07-27T01:51:18.608Z,44.13
2018-07-27T01:52:18.607Z,44.03
2018-07-27T01:53:18.608Z,44.13
2018-07-27T01:54:18.666Z,44.13
2018-07-27T01:55:18.592Z,44.13
2018-07-27T01:56:18.606Z,44.03
2018-07-27T01:57:18.583Z,44.13
2018-07-27T01:58:18.596Z,44.13
2018-07-27T01:59:18.596Z,44.32
2018-07-27T02:00:18.615Z,44.32
2018-07-27T02:01:18.574Z,44.03
2018-07-27T02:02:18.574Z,43.91
2018-07-27T02:03:18.565Z,44.13
2018-07-27T02:04:18.668Z,44.32
2018-07-27T02:05:18.583Z,44.10
2018-07-27T02:06:18.558Z,44.03
2018-07-27T02:07:18.584Z,44.10
2018-07-27T02:08:18.557Z,44.20
2018-07-27T02:09:18.532Z,44.40
2018-07-27T02:10:18.601Z,44.51
2018-07-27T02:11:18.545Z,44.59
2018-07-27T02:12:18.542Z,44.40
2018-07-27T02:13:18.524Z,44.59
2018-07-27T02:14:18.557Z,44.59
2018-07-27T02:15:18.524Z,44.59
2018-07-27T02:16:18.558Z,44.78
2018-07-27T02:17:18.511Z,44.20
2018-07-27T02:18:18.518Z,44.20
2018-07-27T02:19:18.504Z,44.20
2018-07-27T02:20:18.497Z,44.40
2018-07-27T02:21:18.530Z,44.49
2018-07-27T02:22:18.531Z,44.59
2018-07-27T02:23:18.477Z,44.88
2018-07-27T02:24:18.482Z,44.78
2018-07-27T02:25:18.478Z,44.68
2018-07-27T02:26:18.470Z,44.68
2018-07-27T02:27:18.529Z,44.68
2018-07-27T02:28:18.473Z,44.88
2018-07-27T02:29:18.463Z,44.88
2018-07-27T02:30:18.474Z,44.49
2018-07-27T02:31:18.448Z,44.59
2018-07-27T02:32:18.511Z,44.59
2018-07-27T02:33:18.455Z,44.68
2018-07-27T02:34:18.439Z,44.49
2018-07-27T02:35:18.437Z,44.78
2018-07-27T02:36:18.438Z,45.27
2018-07-27T02:37:18.429Z,44.68
2018-07-27T02:38:18.439Z,44.59
2018-07-27T02:39:18.429Z,45.17
2018-07-27T02:40:18.416Z,44.68
2018-07-27T02:41:18.408Z,44.68
2018-07-27T02:42:18.412Z,44.40
2018-07-27T02:43:18.450Z,44.68
2018-07-27T02:44:18.477Z,45.47
2018-07-27T02:45:18.422Z,45.17
2018-07-27T02:46:18.430Z,45.17
2018-07-27T02:47:18.398Z,45.07
2018-07-27T02:48:18.422Z,45.07
2018-07-27T02:49:18.449Z,45.27
2018-07-27T02:50:18.387Z,45.25
2018-07-27T02:51:18.432Z,44.96
2018-07-27T02:52:18.371Z,45.34
2018-07-27T02:53:18.364Z,45.05
2018-07-27T02:54:18.358Z,45.05
2018-07-27T02:55:18.361Z,45.15
2018-07-27T02:56:18.348Z,45.15
2018-07-27T02:57:18.356Z,44.98
2018-07-27T02:58:18.352Z,45.07
2018-07-27T02:59:18.347Z,45.15
2018-07-27T03:00:18.348Z,44.98
2018-07-27T03:01:18.369Z,45.05
2018-07-27T03:02:18.324Z,44.68
2018-07-27T03:03:18.335Z,44.88
2018-07-27T03:04:18.323Z,44.88
2018-07-27T03:05:18.341Z,45.07
2018-07-27T03:06:18.352Z,45.15
2018-07-27T03:07:18.323Z,45.64
2018-07-27T03:08:18.343Z,45.54
2018-07-27T03:09:18.313Z,45.83
2018-07-27T03:10:18.337Z,45.44
2018-07-27T03:11:18.295Z,45.34
2018-07-27T03:12:18.346Z,45.34
2018-07-27T03:13:18.282Z,45.34
2018-07-27T03:14:18.285Z,45.73
2018-07-27T03:15:18.309Z,45.54
2018-07-27T03:16:18.281Z,45.64
2018-07-27T03:17:18.272Z,45.92
2018-07-27T03:18:18.282Z,45.64
2018-07-27T03:19:18.262Z,46.12
2018-07-27T03:20:18.254Z,46.12
2018-07-27T03:21:18.254Z,46.12
2018-07-27T03:22:18.311Z,47.09
2018-07-27T03:23:18.255Z,47.06
2018-07-27T03:24:18.241Z,47.06
2018-07-27T03:25:18.238Z,47.26
2018-07-27T03:26:18.227Z,47.36
2018-07-27T03:27:18.260Z,47.36
2018-07-27T03:28:18.223Z,47.06
2018-07-27T03:29:18.223Z,46.87
2018-07-27T03:30:18.216Z,46.67
2018-07-27T03:31:18.235Z,46.58
2018-07-27T03:32:18.323Z,46.39
2018-07-27T03:33:18.192Z,46.77
2018-07-27T03:34:18.192Z,46.67
2018-07-27T03:35:18.190Z,46.48
2018-07-27T03:36:18.192Z,46.48
2018-07-27T03:37:18.228Z,46.58
2018-07-27T03:38:18.269Z,46.39
2018-07-27T03:39:18.185Z,46.29
2018-07-27T03:40:18.166Z,46.19
2018-07-27T03:41:18.170Z,46.48
2018-07-27T03:42:18.212Z,46.39
2018-07-27T03:43:18.161Z,46.48
2018-07-27T03:44:18.140Z,46.67
2018-07-27T03:45:18.146Z,46.87
2018-07-27T03:46:18.149Z,46.67
2018-07-27T03:47:18.135Z,46.19
2018-07-27T03:48:18.147Z,46.77
2018-07-27T03:49:18.154Z,46.97
2018-07-27T03:50:18.122Z,46.87
2018-07-27T03:51:18.122Z,47.06
2018-07-27T03:52:18.119Z,47.06
2018-07-27T03:53:18.141Z,47.16
2018-07-27T03:54:18.107Z,46.77
2018-07-27T03:55:18.106Z,46.67
2018-07-27T03:56:18.116Z,46.77
2018-07-27T03:57:18.101Z,47.06
2018-07-27T03:58:18.097Z,46.67
2018-07-27T03:59:18.088Z,46.87
2018-07-27T04:00:18.076Z,47.16
2018-07-27T04:01:18.077Z,47.06
2018-07-27T04:02:18.178Z,47.16
2018-07-27T04:03:18.069Z,47.06
2018-07-27T04:04:18.066Z,47.16
2018-07-27T04:05:18.057Z,47.36
2018-07-27T04:06:18.100Z,47.16
2018-07-27T04:07:18.091Z,47.36
2018-07-27T04:08:18.120Z,47.74
2018-07-27T04:09:18.046Z,47.45
2018-07-27T04:10:18.065Z,47.94
2018-07-27T04:11:18.040Z,48.30
2018-07-27T04:12:18.037Z,48.42
2018-07-27T04:13:18.010Z,48.22
2018-07-27T04:14:18.055Z,48.32
2018-07-27T04:15:18.026Z,48.49
2018-07-27T04:16:18.012Z,48.30
2018-07-27T04:17:18.012Z,48.39
2018-07-27T04:18:18.040Z,47.94
2018-07-27T04:19:17.989Z,47.94
2018-07-27T04:20:18.007Z,48.03
2018-07-27T04:21:18.002Z,48.22
2018-07-27T04:22:18.019Z,48.03
2018-07-27T04:23:18.060Z,47.45
2018-07-27T04:24:18.009Z,47.36
2018-07-27T04:25:17.978Z,47.84
2018-07-27T04:26:18.047Z,47.84
2018-07-27T04:27:17.969Z,47.45
2018-07-27T04:28:17.961Z,47.36
2018-07-27T04:29:17.995Z,47.26
2018-07-27T04:30:17.944Z,47.55
2018-07-27T04:31:17.952Z,47.16
2018-07-27T04:32:17.937Z,47.45
2018-07-27T04:33:17.933Z,47.36
2018-07-27T04:34:17.956Z,47.45
2018-07-27T04:35:17.923Z,47.45
2018-07-27T04:36:17.920Z,46.97
2018-07-27T04:37:17.915Z,47.16
2018-07-27T04:38:17.925Z,47.16
2018-07-27T04:39:17.940Z,47.06
2018-07-27T04:40:17.906Z,46.97
2018-07-27T04:41:17.899Z,46.97
2018-07-27T04:42:17.943Z,47.45
2018-07-27T04:43:17.888Z,47.26
2018-07-27T04:44:17.952Z,47.26
2018-07-27T04:45:17.884Z,47.45
2018-07-27T04:46:17.876Z,46.97
2018-07-27T04:47:17.865Z,47.06
2018-07-27T04:48:17.872Z,47.06
2018-07-27T04:49:18.877Z,47.16
2018-07-27T04:50:17.878Z,47.36
2018-07-27T04:51:17.853Z,47.16
2018-07-27T04:52:17.862Z,47.36
2018-07-27T04:53:17.853Z,46.97
2018-07-27T04:54:17.876Z,47.06
2018-07-27T04:55:17.827Z,47.36
2018-07-27T04:56:17.888Z,47.94
2018-07-27T04:57:17.858Z,47.55
2018-07-27T04:58:17.825Z,47.55
2018-07-27T04:59:17.847Z,48.03
2018-07-27T05:00:17.824Z,47.74
2018-07-27T05:01:17.806Z,47.64
2018-07-27T05:02:17.817Z,47.36
2018-07-27T05:03:17.801Z,47.64
2018-07-27T05:04:17.886Z,47.55
2018-07-27T05:05:17.799Z,47.45
2018-07-27T05:06:17.794Z,48.22
2018-07-27T05:07:17.780Z,48.22
2018-07-27T05:08:17.781Z,47.64
2018-07-27T05:09:17.770Z,48.03
2018-07-27T05:10:17.821Z,48.13
2018-07-27T05:11:17.776Z,48.32
2018-07-27T05:12:17.762Z,47.64
2018-07-27T05:13:17.751Z,48.13
2018-07-27T05:14:17.747Z,48.13
2018-07-27T05:15:17.744Z,48.13
2018-07-27T05:16:17.803Z,48.32
2018-07-27T05:17:17.741Z,48.42
2018-07-27T05:18:17.811Z,48.42
2018-07-27T05:19:17.734Z,48.42
2018-07-27T05:20:17.731Z,48.22
2018-07-27T05:21:17.742Z,48.22
2018-07-27T05:22:17.727Z,48.03
2018-07-27T05:23:17.732Z,48.32
2018-07-27T05:24:17.712Z,48.22
2018-07-27T05:25:17.771Z,48.22
2018-07-27T05:26:17.698Z,48.44
2018-07-27T05:27:17.706Z,48.13
2018-07-27T05:28:17.681Z,48.22
2018-07-27T05:29:17.678Z,48.22
2018-07-27T05:30:17.679Z,48.42
2018-07-27T05:31:17.712Z,48.35
2018-07-27T05:32:22.592Z,48.35
2018-07-27T05:33:17.687Z,49.22
2018-07-27T05:34:17.747Z,49.22
2018-07-27T05:35:17.661Z,48.54
2018-07-27T05:36:17.657Z,49.22
2018-07-27T05:37:17.660Z,48.64
2018-07-27T05:38:17.650Z,48.71
2018-07-27T05:39:17.649Z,49.02
2018-07-27T05:40:17.638Z,49.02
2018-07-27T05:41:17.649Z,48.93
2018-07-27T05:42:17.662Z,49.22
2018-07-27T05:43:17.628Z,50.67
2018-07-27T05:44:17.631Z,50.77
2018-07-27T05:45:17.610Z,50.67
2018-07-27T05:46:17.617Z,50.87
2018-07-27T05:47:17.648Z,49.99
2018-07-27T05:48:17.599Z,50.19
2018-07-27T05:49:17.596Z,50.19
2018-07-27T05:50:17.602Z,49.51
2018-07-27T05:51:17.597Z,49.99
2018-07-27T05:52:17.649Z,49.51
2018-07-27T05:53:17.594Z,49.70
2018-07-27T05:54:17.592Z,49.99
2018-07-27T05:55:17.572Z,49.41
2018-07-27T05:56:17.578Z,49.80
2018-07-27T05:57:17.584Z,49.61
2018-07-27T05:58:17.638Z,49.90
2018-07-27T05:59:17.575Z,50.09
2018-07-27T06:00:17.561Z,51.64
2018-07-27T06:01:17.599Z,51.54
2018-07-27T06:02:17.554Z,51.74
2018-07-27T06:03:17.532Z,51.06
2018-07-27T06:04:17.553Z,51.64
2018-07-27T06:05:17.533Z,51.37
2018-07-27T06:06:17.555Z,51.35
2018-07-27T06:07:17.524Z,50.89
2018-07-27T06:08:17.529Z,50.79
2018-07-27T06:09:19.528Z,51.37
2018-07-27T06:10:18.298Z,51.25
2018-07-27T06:11:17.575Z,51.28
2018-07-27T06:12:17.508Z,51.28
2018-07-27T06:13:17.507Z,51.09
2018-07-27T06:14:17.555Z,51.28
2018-07-27T06:15:17.503Z,51.86
2018-07-27T06:16:17.491Z,51.09
2018-07-27T06:17:17.476Z,51.57
2018-07-27T06:18:17.491Z,51.57
2018-07-27T06:19:17.482Z,51.37
2018-07-27T06:20:17.532Z,52.06
2018-07-27T06:21:17.466Z,51.47
2018-07-27T06:22:17.467Z,51.28
2018-07-27T06:23:17.511Z,51.57
2018-07-27T06:24:17.574Z,51.40
2018-07-27T06:25:17.464Z,51.50
2018-07-27T06:26:17.483Z,51.11
2018-07-27T06:27:17.450Z,51.50
2018-07-27T06:28:17.486Z,51.31
2018-07-27T06:29:17.503Z,51.31
2018-07-27T06:30:17.444Z,50.82
2018-07-27T06:31:18.928Z,51.79
2018-07-27T06:32:17.425Z,51.21
2018-07-27T06:33:17.420Z,51.40
2018-07-27T06:34:17.414Z,51.21
2018-07-27T06:35:17.433Z,51.21
2018-07-27T06:36:17.487Z,51.11
2018-07-27T06:37:17.424Z,52.08
2018-07-27T06:38:17.411Z,51.98
2018-07-27T06:39:17.408Z,51.11
2018-07-27T06:40:17.394Z,51.31
2018-07-27T06:41:17.400Z,51.98
2018-07-27T06:42:17.433Z,51.50
2018-07-27T06:43:19.131Z,51.50
2018-07-27T06:44:17.391Z,51.79
2018-07-27T06:45:17.442Z,51.40
2018-07-27T06:46:17.381Z,51.59
2018-07-27T06:47:18.165Z,51.72
2018-07-27T06:48:17.374Z,51.62
2018-07-27T06:49:17.407Z,51.04
2018-07-27T06:50:17.369Z,50.84
2018-07-27T06:51:17.358Z,51.14
2018-07-27T06:52:17.377Z,50.74
2018-07-27T06:53:17.354Z,50.65
2018-07-27T06:54:17.365Z,50.84
2018-07-27T06:55:17.349Z,50.65
2018-07-27T06:56:17.358Z,50.36
2018-07-27T06:57:17.346Z,50.74
2018-07-27T06:58:17.348Z,51.14
2018-07-27T06:59:17.357Z,50.84
2018-07-27T07:00:17.329Z,50.84
2018-07-27T07:01:17.337Z,50.38
2018-07-27T07:02:17.319Z,50.65
2018-07-27T07:03:17.350Z,50.68
2018-07-27T07:04:17.364Z,50.77
2018-07-27T07:05:17.336Z,50.68
2018-07-27T07:06:17.318Z,50.48
2018-07-27T07:07:17.300Z,49.22
2018-07-27T07:08:20.665Z,49.82
2018-07-27T07:09:17.406Z,49.44
2018-07-27T07:10:17.290Z,50.21
2018-07-27T07:11:18.140Z,49.44
2018-07-27T07:12:17.303Z,49.82
2018-07-27T07:13:17.283Z,49.54
2018-07-27T07:14:17.289Z,49.73
2018-07-27T07:15:17.319Z,49.82
2018-07-27T07:16:17.303Z,49.54
2018-07-27T07:17:17.281Z,49.82
2018-07-27T07:18:17.276Z,50.12
2018-07-27T07:19:17.286Z,50.02
2018-07-27T07:20:17.306Z,49.92
2018-07-27T07:21:17.267Z,49.34
2018-07-27T07:22:17.291Z,48.75
2018-07-27T07:23:17.267Z,49.15
2018-07-27T07:24:17.284Z,49.54
2018-07-27T07:25:17.450Z,49.37
2018-07-27T07:26:17.245Z,48.97
2018-07-27T07:27:17.253Z,48.78
2018-07-27T07:28:17.236Z,49.46
2018-07-27T07:29:17.236Z,49.34
2018-07-27T07:30:17.239Z,48.78
2018-07-27T07:31:17.244Z,49.46
2018-07-27T07:32:17.232Z,49.27
2018-07-27T07:33:17.278Z,49.17
2018-07-27T07:34:17.229Z,48.88
2018-07-27T07:35:17.242Z,48.58
2018-07-27T07:36:17.254Z,48.88
2018-07-27T07:37:17.216Z,48.78
2018-07-27T07:38:17.209Z,48.78
2018-07-27T07:39:17.213Z,48.49
2018-07-27T07:40:17.228Z,48.00
2018-07-27T07:41:17.237Z,48.90
2018-07-27T07:42:17.209Z,48.30
2018-07-27T07:43:17.210Z,48.58
2018-07-27T07:44:17.190Z,48.39
2018-07-27T07:45:17.211Z,48.13
2018-07-27T07:46:17.533Z,47.25
2018-07-27T07:47:17.197Z,47.64
2018-07-27T07:48:17.184Z,47.64
2018-07-27T07:49:17.213Z,47.54
2018-07-27T07:50:17.182Z,47.34
2018-07-27T07:51:17.196Z,47.25
2018-07-27T07:52:17.210Z,47.25
2018-07-27T07:53:17.178Z,47.25
2018-07-27T07:54:17.173Z,46.88
2018-07-27T07:55:17.178Z,46.69
2018-07-27T07:56:17.182Z,46.11
2018-07-27T07:57:17.206Z,45.91
2018-07-27T07:58:17.171Z,45.62
2018-07-27T07:59:17.165Z,46.01
2018-07-27T08:00:17.164Z,46.30
2018-07-27T08:01:17.146Z,45.81
2018-07-27T08:02:17.166Z,46.11
2018-07-27T08:03:17.179Z,45.72
2018-07-27T08:04:17.204Z,45.72
2018-07-27T08:05:17.134Z,45.62
2018-07-27T08:06:17.192Z,45.72
2018-07-27T08:07:17.139Z,46.11
2018-07-27T08:08:18.114Z,46.11
2018-07-27T08:09:17.162Z,44.55
2018-07-27T08:10:17.129Z,45.25
2018-07-27T08:11:17.269Z,45.35
2018-07-27T08:12:17.120Z,45.15
2018-07-27T08:13:17.118Z,44.74
2018-07-27T08:14:17.118Z,45.35
2018-07-27T08:15:17.117Z,45.94
2018-07-27T08:16:17.159Z,45.14
2018-07-27T08:17:17.143Z,45.25
2018-07-27T08:18:17.126Z,45.52
2018-07-27T08:19:17.110Z,45.64
2018-07-27T08:20:17.118Z,45.35
2018-07-27T08:21:17.110Z,45.25
2018-07-27T08:22:17.254Z,45.18
2018-07-27T08:23:17.125Z,44.76
2018-07-27T08:24:17.106Z,44.59
2018-07-27T08:25:17.101Z,44.48
2018-07-27T08:26:17.105Z,44.98
2018-07-27T08:27:17.110Z,45.45
2018-07-27T08:28:17.111Z,45.95
2018-07-27T08:29:17.106Z,44.57
2018-07-27T08:30:17.104Z,44.10
2018-07-27T08:31:17.090Z,44.67
2018-07-27T08:32:17.216Z,45.57
2018-07-27T08:33:17.084Z,44.20
2018-07-27T08:34:17.089Z,44.49
2018-07-27T08:35:17.083Z,44.98
2018-07-27T08:36:17.081Z,44.69
2018-07-27T08:37:17.085Z,44.20
2018-07-27T08:38:17.086Z,44.10
2018-07-27T08:39:17.154Z,42.74
2018-07-27T08:40:17.087Z,41.67
2018-07-27T08:41:17.074Z,40.70
2018-07-27T08:42:17.105Z,41.19
2018-07-27T08:43:17.072Z,41.30
2018-07-27T08:44:17.145Z,41.01
2018-07-27T08:45:17.119Z,41.50
2018-07-27T08:46:17.068Z,41.40
2018-07-27T08:47:17.125Z,40.91
2018-07-27T08:48:17.064Z,40.33
2018-07-27T08:49:17.078Z,40.33
2018-07-27T08:50:17.085Z,40.03
2018-07-27T08:51:17.116Z,40.16
2018-07-27T08:52:17.090Z,40.25
2018-07-27T08:53:17.049Z,39.67
2018-07-27T08:54:17.040Z,40.25
2018-07-27T08:55:17.056Z,39.98
2018-07-27T08:56:17.177Z,38.84
2018-07-27T08:57:17.041Z,38.67
2018-07-27T08:58:17.050Z,37.22
2018-07-27T08:59:17.163Z,36.93
2018-07-27T09:00:17.042Z,36.44
2018-07-27T09:01:17.037Z,36.15
2018-07-27T09:02:17.094Z,35.27
2018-07-27T09:03:17.039Z,35.28
2018-07-27T09:04:17.040Z,35.60
2018-07-27T09:05:17.038Z,35.32
2018-07-27T09:06:18.414Z,35.24
2018-07-27T09:07:17.027Z,34.77
2018-07-27T09:08:17.066Z,34.01
2018-07-27T09:09:19.802Z,33.72
2018-07-27T09:10:17.085Z,31.96
2018-07-27T09:11:17.032Z,31.58
2018-07-27T09:12:17.035Z,32.46
2018-07-27T09:13:17.070Z,32.97
2018-07-27T09:14:17.036Z,32.98
2018-07-27T09:15:17.045Z,31.22
2018-07-27T09:16:17.033Z,30.73
2018-07-27T09:17:17.152Z,31.82
2018-07-27T09:18:17.060Z,30.74
2018-07-27T09:19:17.040Z,29.37
2018-07-27T09:20:17.035Z,28.78
2018-07-27T09:21:17.043Z,29.58
2018-07-27T09:22:17.053Z,28.79
2018-07-27T09:23:17.077Z,28.69
2018-07-27T09:24:17.163Z,28.50
2018-07-27T09:25:17.432Z,29.19
2018-07-27T09:26:17.070Z,28.79
2018-07-27T09:27:17.081Z,29.28
2018-07-27T09:28:17.102Z,29.77
2018-07-27T09:29:17.125Z,30.08
2018-07-27T09:30:17.082Z,30.30
2018-07-27T09:31:17.074Z,28.72
2018-07-27T09:32:17.085Z,28.72
2018-07-27T09:33:17.094Z,28.42
2018-07-27T09:34:17.121Z,28.33
2018-07-27T09:35:17.124Z,27.84
2018-07-27T09:36:17.104Z,28.13
2018-07-27T09:37:17.109Z,27.94
2018-07-27T09:38:17.122Z,29.21
2018-07-27T09:39:17.136Z,28.93
2018-07-27T09:40:17.132Z,28.64
2018-07-27T09:41:17.136Z,28.14
2018-07-27T09:42:17.150Z,29.24
2018-07-27T09:43:17.161Z,27.27
2018-07-27T09:44:17.147Z,27.37
2018-07-27T09:45:17.193Z,28.47
2018-07-27T09:46:17.160Z,28.88
2018-07-27T09:47:17.184Z,28.89
2018-07-27T09:48:17.191Z,29.30
2018-07-27T09:49:17.194Z,27.72
2018-07-27T09:50:17.224Z,28.62
2018-07-27T09:51:17.215Z,27.04
2018-07-27T09:52:17.216Z,27.55
2018-07-27T09:53:17.218Z,27.86
2018-07-27T09:54:17.252Z,26.39
2018-07-27T09:55:17.260Z,24.91
2018-07-27T09:56:17.264Z,25.02
2018-07-27T09:57:17.252Z,21.16
2018-07-27T09:58:17.266Z,22.73
2018-07-27T09:59:17.268Z,23.43
2018-07-27T10:00:17.289Z,24.83
2018-07-27T10:01:17.290Z,24.05
2018-07-27T10:02:17.307Z,23.28
2018-07-27T10:03:17.314Z,22.11
2018-07-27T10:04:17.328Z,22.02
2018-07-27T10:05:17.341Z,21.82
2018-07-27T10:06:17.368Z,22.13
2018-07-27T10:07:17.348Z,20.75
2018-07-27T10:08:17.365Z,21.45
2018-07-27T10:09:17.372Z,19.86
2018-07-27T10:10:17.457Z,20.97
2018-07-27T10:11:17.386Z,21.47
2018-07-27T10:12:17.404Z,21.08
2018-07-27T10:13:17.409Z,19.01
2018-07-27T10:14:17.426Z,20.20
2018-07-27T10:15:17.435Z,20.61
2018-07-27T10:16:17.479Z,20.73
2018-07-27T10:17:17.461Z,21.14
2018-07-27T10:18:17.548Z,20.05
2018-07-27T10:19:17.481Z,20.06
2018-07-27T10:20:17.495Z,19.37
2018-07-27T10:21:17.544Z,17.77
2018-07-27T10:22:17.521Z,17.47
2018-07-27T10:23:17.532Z,17.17
2018-07-27T10:24:17.551Z,15.77
2018-07-27T10:25:17.556Z,16.17
2018-07-27T10:26:17.636Z,16.67
2018-07-27T10:27:17.579Z,16.87
2018-07-27T10:28:17.588Z,16.77
2018-07-27T10:29:17.603Z,16.69
2018-07-27T10:30:17.632Z,15.29
2018-07-27T10:31:17.632Z,16.19
2018-07-27T10:32:17.654Z,16.09
2018-07-27T10:33:17.657Z,15.80
2018-07-27T10:34:17.661Z,16.20
2018-07-27T10:35:17.694Z,16.01
2018-07-27T10:36:17.699Z,16.21
2018-07-27T10:37:17.713Z,14.91
2018-07-27T10:38:17.723Z,15.31
2018-07-27T10:39:17.739Z,15.81
2018-07-27T10:40:17.752Z,15.92
2018-07-27T10:41:17.761Z,15.22
2018-07-27T10:42:17.794Z,15.73
2018-07-27T10:43:17.792Z,15.53
2018-07-27T10:44:17.819Z,15.33
2018-07-27T10:45:18.757Z,16.03
2018-07-27T10:46:17.844Z,15.41
2018-07-27T10:47:17.891Z,15.80
2018-07-27T10:48:17.854Z,16.09
2018-07-27T10:49:17.868Z,15.88
2018-07-27T10:50:17.922Z,16.56
2018-07-27T10:51:17.917Z,16.95
2018-07-27T10:52:17.934Z,16.94
2018-07-27T10:53:17.916Z,18.02
2018-07-27T10:54:17.936Z,16.00
2018-07-27T10:55:17.935Z,15.80
2018-07-27T10:56:17.979Z,16.77
2018-07-27T10:57:17.953Z,17.86
2018-07-27T10:58:17.957Z,17.35
2018-07-27T10:59:17.973Z,18.44
2018-07-27T11:00:17.964Z,18.65
2018-07-27T11:01:17.993Z,19.06
2018-07-27T11:02:17.998Z,18.97
2018-07-27T11:03:17.995Z,18.28
2018-07-27T11:04:18.019Z,19.27
2018-07-27T11:05:18.017Z,18.47
2018-07-27T11:06:18.075Z,17.57
2018-07-27T11:07:18.028Z,18.15
2018-07-27T11:08:18.038Z,19.04
2018-07-27T11:09:18.127Z,18.73
2018-07-27T11:10:18.058Z,20.10
2018-07-27T11:11:18.102Z,20.59
2018-07-27T11:12:18.089Z,21.46
2018-07-27T11:13:18.614Z,21.66
2018-07-27T11:14:18.095Z,21.94
2018-07-27T11:15:18.154Z,20.94
2018-07-27T11:16:18.108Z,21.04
2018-07-27T11:17:18.419Z,21.82
2018-07-27T11:18:18.112Z,21.12
2018-07-27T11:19:18.117Z,21.80
2018-07-27T11:20:18.132Z,22.09
2018-07-27T11:21:18.137Z,22.78
2018-07-27T11:22:18.129Z,23.47
2018-07-27T11:23:18.160Z,24.16
2018-07-27T11:24:18.153Z,24.56
2018-07-27T11:25:18.145Z,23.88
2018-07-27T11:26:18.163Z,22.23
2018-07-27T11:27:18.214Z,21.04
2018-07-27T11:28:18.786Z,19.46
2018-07-27T11:29:18.179Z,19.67
2018-07-27T11:30:19.494Z,19.58
2018-07-27T11:31:18.802Z,19.58
2018-07-27T11:32:18.195Z,19.67
2018-07-27T11:33:18.198Z,20.46
2018-07-27T11:34:18.211Z,20.36
2018-07-27T11:35:18.209Z,21.26
2018-07-27T11:36:18.224Z,21.28
2018-07-27T11:37:18.276Z,21.00
2018-07-27T11:38:18.224Z,19.41
2018-07-27T11:39:18.297Z,17.44
2018-07-27T11:40:18.240Z,17.93
2018-07-27T11:41:18.265Z,19.22
2018-07-27T11:42:22.835Z,18.44
2018-07-27T11:43:18.256Z,18.15
2018-07-27T11:44:18.319Z,17.85
2018-07-27T11:45:18.341Z,17.46
2018-07-27T11:46:18.302Z,17.37
2018-07-27T11:47:18.303Z,17.28
2018-07-27T11:48:18.319Z,16.59
2018-07-27T11:49:18.378Z,17.00
2018-07-27T11:50:18.344Z,17.60
2018-07-27T11:51:18.356Z,16.60
2018-07-27T11:52:18.406Z,16.31
2018-07-27T11:53:18.368Z,16.80
2018-07-27T11:54:18.392Z,18.19
2018-07-27T11:55:18.984Z,18.10
2018-07-27T11:56:18.396Z,17.41
2018-07-27T11:57:18.401Z,18.32
2018-07-27T11:58:19.318Z,18.13
2018-07-27T11:59:18.504Z,17.53
2018-07-27T12:00:18.522Z,18.24
2018-07-27T12:01:18.817Z,18.04
2018-07-27T12:02:18.461Z,16.66
2018-07-27T12:03:18.491Z,16.66
2018-07-27T12:04:18.650Z,16.36
2018-07-27T12:05:21.344Z,14.26
2018-07-27T12:06:18.842Z,15.96
2018-07-27T12:07:18.523Z,16.06
2018-07-27T12:08:18.550Z,15.56
2018-07-27T12:09:18.649Z,16.06
2018-07-27T12:10:18.628Z,16.27
2018-07-27T12:11:18.565Z,14.87
2018-07-27T12:12:18.669Z,16.16
2018-07-27T12:13:18.601Z,15.37
2018-07-27T12:14:18.808Z,15.26
2018-07-27T12:15:18.841Z,14.86
2018-07-27T12:16:18.652Z,16.04
2018-07-27T12:17:18.645Z,14.35
2018-07-27T12:18:18.668Z,14.73
2018-07-27T12:19:19.641Z,16.22
2018-07-27T12:20:18.804Z,16.21
2018-07-27T12:21:18.783Z,15.31
2018-07-27T12:22:18.699Z,15.90
2018-07-27T12:23:19.734Z,15.78
2018-07-27T12:24:18.722Z,16.57
2018-07-27T12:25:18.834Z,17.14
2018-07-27T12:26:19.445Z,17.54
2018-07-27T12:27:18.746Z,17.54
2018-07-27T12:28:18.784Z,18.02
2018-07-27T12:29:18.769Z,17.32
2018-07-27T12:30:18.774Z,18.10
2018-07-27T12:31:18.777Z,19.09
2018-07-27T12:32:18.793Z,19.09
2018-07-27T12:33:18.790Z,19.67
2018-07-27T12:34:18.799Z,19.58
2018-07-27T12:35:18.820Z,19.47
2018-07-27T12:36:18.818Z,20.06
2018-07-27T12:37:19.318Z,19.95
2018-07-27T12:38:18.838Z,19.66
2018-07-27T12:39:18.841Z,19.15
2018-07-27T12:40:18.859Z,19.85
2018-07-27T12:41:18.841Z,19.54
2018-07-27T12:42:18.844Z,19.82
2018-07-27T12:43:19.781Z,19.93
2018-07-27T12:44:18.868Z,20.80
2018-07-27T12:45:19.399Z,20.41
2018-07-27T12:46:18.876Z,20.70
2018-07-27T12:47:18.874Z,20.80
2018-07-27T12:48:18.869Z,20.90
2018-07-27T12:49:18.949Z,20.70
2018-07-27T12:50:18.904Z,21.19
2018-07-27T12:51:18.900Z,20.60
2018-07-27T12:52:18.887Z,20.49